Time;durP1;ratioP1;P1;durP2;ratioP2;P2;SDS_P1;SDS_P2;PMS_P1;PMS_P2;Temp;Humidity;BMP_temperature;BMP_pressure;BME280_temperature;BME280_humidity;BME280_pressure;Samples;Min_cycle;Max_cycle;Signal;HPM_P1;HPM_P2
2021/07/23 19:06:00;;;;;;;6.47;3.40;;;22.20;99.90;;;;;;5090531;28;20613;-77
2021/07/23 19:08:27;;;;;;;7.47;3.50;;;21.90;99.90;;;;;;5090166;28;20703;-76
2021/07/23 19:10:54;;;;;;;8.52;3.33;;;21.90;99.90;;;;;;5089929;28;20289;-77
2021/07/23 19:13:21;;;;;;;6.22;3.78;;;21.90;99.90;;;;;;5090129;28;20199;-76
2021/07/23 19:15:47;;;;;;;5.78;3.38;;;21.90;99.90;;;;;;5089800;28;20229;-76
2021/07/23 19:18:14;;;;;;;8.07;3.47;;;21.80;99.90;;;;;;5090386;28;20274;-76
2021/07/23 19:20:41;;;;;;;7.40;3.33;;;21.80;99.90;;;;;;5094824;28;20190;-77
2021/07/23 19:23:11;;;;;;;7.43;3.20;;;21.70;99.90;;;;;;5077743;28;20209;-76
2021/07/23 19:25:37;;;;;;;12.82;4.13;;;21.70;99.90;;;;;;5083224;28;20322;-77
2021/07/23 19:28:04;;;;;;;7.88;4.10;;;21.70;99.90;;;;;;5089339;28;20278;-76
2021/07/23 19:30:31;;;;;;;7.95;3.55;;;21.60;99.90;;;;;;5102348;28;20198;-77
2021/07/23 19:32:58;;;;;;;7.47;3.50;;;21.50;99.90;;;;;;5089599;28;20215;-78
2021/07/23 19:35:25;;;;;;;8.55;3.45;;;21.40;99.90;;;;;;5088397;28;20718;-77
2021/07/23 19:37:52;;;;;;;6.45;3.88;;;21.40;99.90;;;;;;5081220;28;20736;-77
2021/07/23 19:40:20;;;;;;;9.00;3.50;;;21.30;99.90;;;;;;5082546;28;20234;-78
2021/07/23 19:42:47;;;;;;;10.93;3.92;;;21.30;99.90;;;;;;5088143;28;20286;-78
2021/07/23 19:45:14;;;;;;;10.55;4.03;;;21.20;99.90;;;;;;5088604;28;20605;-77
2021/07/23 19:47:42;;;;;;;10.57;3.53;;;21.10;99.90;;;;;;5084006;28;20248;-77
2021/07/23 19:50:09;;;;;;;5.67;3.67;;;21.00;99.90;;;;;;5086485;28;20282;-77
2021/07/23 19:52:37;;;;;;;6.50;3.63;;;21.00;99.90;;;;;;5088532;28;20279;-77
2021/07/23 19:55:05;;;;;;;9.90;3.80;;;20.90;99.90;;;;;;5091149;28;20288;-77
2021/07/23 19:57:38;;;;;;;11.27;4.10;;;20.90;99.90;;;;;;5087751;28;20277;-77
2021/07/23 20:00:06;;;;;;;14.73;3.90;;;20.90;99.90;;;;;;5081295;28;20618;-76
2021/07/23 20:02:33;;;;;;;7.63;4.10;;;20.80;99.90;;;;;;5087984;28;20205;-78
2021/07/23 20:05:00;;;;;;;11.93;4.10;;;20.70;99.90;;;;;;5087673;28;20250;-77
2021/07/23 20:07:27;;;;;;;14.77;4.37;;;20.70;99.90;;;;;;5085743;28;20195;-77
2021/07/23 20:09:54;;;;;;;9.90;3.63;;;20.60;99.90;;;;;;5090318;28;20613;-76
2021/07/23 20:12:21;;;;;;;9.57;4.20;;;20.50;99.90;;;;;;5086431;28;20194;-76
2021/07/23 20:14:50;;;;;;;8.97;4.17;;;20.50;99.90;;;;;;5086961;28;20249;-75
2021/07/23 20:17:16;;;;;;;6.80;3.93;;;20.60;99.90;;;;;;5072942;28;20211;-76
2021/07/23 20:19:43;;;;;;;7.80;3.87;;;20.40;99.90;;;;;;5074687;28;20195;-76
2021/07/23 20:22:10;;;;;;;6.00;4.00;;;20.40;99.90;;;;;;5072626;28;20644;-77
2021/07/23 20:24:37;;;;;;;5.60;4.20;;;20.30;99.90;;;;;;5073438;28;20281;-76
2021/07/23 20:27:04;;;;;;;9.10;4.27;;;20.20;99.90;;;;;;5070169;28;20278;-75
2021/07/23 20:29:31;;;;;;;11.03;4.40;;;20.20;99.90;;;;;;5071144;28;20731;-74
2021/07/23 20:32:00;;;;;;;7.10;4.33;;;20.10;99.90;;;;;;5071348;28;20577;-77
2021/07/23 20:34:26;;;;;;;6.83;4.67;;;20.10;99.90;;;;;;5071312;28;20223;-75
2021/07/23 20:36:53;;;;;;;11.13;4.47;;;20.00;99.90;;;;;;5068777;28;20287;-75
2021/07/23 20:39:20;;;;;;;8.63;5.00;;;20.00;99.90;;;;;;5064319;28;20226;-75
2021/07/23 20:41:47;;;;;;;8.43;5.13;;;19.90;99.90;;;;;;5062295;28;20207;-75
2021/07/23 20:44:14;;;;;;;7.90;4.80;;;19.80;99.90;;;;;;5066398;28;20245;-75
2021/07/23 20:46:41;;;;;;;7.87;5.27;;;19.80;99.90;;;;;;5072052;28;20271;-75
2021/07/23 20:49:09;;;;;;;7.83;5.13;;;19.70;99.90;;;;;;5075439;28;20230;-75
2021/07/23 20:51:36;;;;;;;8.10;5.50;;;19.60;99.90;;;;;;5072325;28;20677;-77
2021/07/23 20:54:03;;;;;;;9.30;5.60;;;19.70;99.90;;;;;;5073174;28;20278;-75
2021/07/23 20:56:30;;;;;;;10.53;6.03;;;19.60;99.90;;;;;;5070777;28;20199;-76
2021/07/23 20:58:57;;;;;;;10.87;6.10;;;19.60;99.90;;;;;;5069159;28;20287;-77
2021/07/23 21:01:23;;;;;;;9.30;5.90;;;19.50;99.90;;;;;;5060012;28;20198;-75
2021/07/23 21:03:50;;;;;;;12.57;6.10;;;19.50;99.90;;;;;;5060657;28;20733;-76
2021/07/23 21:06:20;;;;;;;11.20;6.13;;;19.40;99.90;;;;;;5069723;28;20294;-77
2021/07/23 21:08:47;;;;;;;7.80;6.07;;;19.30;99.90;;;;;;5065638;28;20199;-78
2021/07/23 21:11:13;;;;;;;14.47;6.80;;;19.30;99.90;;;;;;5061109;28;20192;-77
2021/07/23 21:13:40;;;;;;;10.30;7.73;;;19.30;99.90;;;;;;5063202;28;20283;-77
2021/07/23 21:16:07;;;;;;;14.27;7.30;;;19.30;99.90;;;;;;5062228;28;20703;-76
2021/07/23 21:18:34;;;;;;;8.47;7.20;;;19.30;99.90;;;;;;5066480;28;20586;-77
2021/07/23 21:21:01;;;;;;;14.57;7.13;;;19.30;99.90;;;;;;5069989;28;20719;-78
2021/07/23 21:23:29;;;;;;;9.07;6.80;;;19.30;99.90;;;;;;5071331;28;20202;-76
2021/07/23 21:25:56;;;;;;;10.50;7.13;;;19.30;99.90;;;;;;5065735;28;20377;-77
2021/07/23 21:28:23;;;;;;;10.07;6.87;;;19.20;99.90;;;;;;5063168;28;20242;-76
2021/07/23 21:30:50;;;;;;;10.67;7.27;;;19.20;99.90;;;;;;5066757;28;20279;-76
2021/07/23 21:33:17;;;;;;;13.97;7.10;;;19.20;99.90;;;;;;5065856;28;20597;-79
2021/07/23 21:35:44;;;;;;;12.17;7.20;;;19.10;99.90;;;;;;5059187;28;20287;-78
2021/07/23 21:38:10;;;;;;;10.43;7.67;;;19.00;99.90;;;;;;5070468;28;20223;-76
2021/07/23 21:40:39;;;;;;;10.90;8.00;;;19.00;99.90;;;;;;5064843;28;20239;-76
2021/07/23 21:43:06;;;;;;;11.93;8.03;;;18.90;99.90;;;;;;5059693;28;20202;-77
2021/07/23 21:45:33;;;;;;;12.67;8.07;;;18.90;99.90;;;;;;5054849;28;20228;-76
2021/07/23 21:48:00;;;;;;;15.13;8.17;;;18.90;99.90;;;;;;5058719;28;20725;-77
2021/07/23 21:50:27;;;;;;;12.33;7.87;;;18.90;99.90;;;;;;5059075;28;20289;-77
2021/07/23 21:52:54;;;;;;;11.93;8.40;;;18.90;99.90;;;;;;5057186;28;20193;-77
2021/07/23 21:55:21;;;;;;;12.30;7.73;;;18.90;99.90;;;;;;5062879;28;20766;-77
2021/07/23 21:57:49;;;;;;;13.83;8.10;;;19.00;99.90;;;;;;5060108;28;20247;-78
2021/07/23 22:00:16;;;;;;;12.20;8.27;;;18.90;99.90;;;;;;5060315;28;20209;-78
2021/07/23 22:02:43;;;;;;;12.43;8.33;;;18.90;99.90;;;;;;5055447;28;20203;-76
2021/07/23 22:05:11;;;;;;;11.43;7.57;;;18.90;99.90;;;;;;5055327;28;20308;-76
2021/07/23 22:07:39;;;;;;;9.70;7.57;;;18.90;99.90;;;;;;5057870;28;20278;-75
2021/07/23 22:10:07;;;;;;;12.93;8.00;;;18.90;99.90;;;;;;5063674;28;20653;-76
2021/07/23 22:12:34;;;;;;;15.00;7.53;;;18.90;99.90;;;;;;5071051;28;20282;-77
2021/07/23 22:15:04;;;;;;;12.23;7.87;;;18.80;99.90;;;;;;5070720;28;20276;-75
2021/07/23 22:17:31;;;;;;;12.13;7.93;;;18.80;99.90;;;;;;5071353;28;20535;-75
2021/07/23 22:20:00;;;;;;;15.80;8.07;;;18.70;99.90;;;;;;5069817;28;20202;-75
2021/07/23 22:22:28;;;;;;;14.03;8.13;;;18.70;99.90;;;;;;5065759;28;20232;-75
2021/07/23 22:24:56;;;;;;;14.77;8.53;;;18.70;99.90;;;;;;5071912;28;20294;-75
2021/07/23 22:27:24;;;;;;;12.00;8.10;;;18.60;99.90;;;;;;5071800;28;20197;-75
2021/07/23 22:29:51;;;;;;;11.33;7.97;;;18.60;99.90;;;;;;5071156;28;20579;-75
2021/07/23 22:32:19;;;;;;;14.00;8.20;;;18.50;99.90;;;;;;5071846;28;20214;-77
2021/07/23 22:34:47;;;;;;;11.97;8.37;;;18.50;99.90;;;;;;5071402;28;20382;-75
2021/07/23 22:37:14;;;;;;;14.57;8.30;;;18.50;99.90;;;;;;5075710;28;20187;-76
2021/07/23 22:39:41;;;;;;;16.53;8.37;;;18.40;99.90;;;;;;5074394;28;20223;-76
2021/07/23 22:42:08;;;;;;;17.37;8.37;;;18.40;99.90;;;;;;5072780;28;20219;-77
2021/07/23 22:44:36;;;;;;;11.63;8.10;;;18.40;99.90;;;;;;5072388;28;20191;-76
2021/07/23 22:47:03;;;;;;;12.33;8.00;;;18.30;99.90;;;;;;5072142;28;20195;-75
2021/07/23 22:49:31;;;;;;;14.23;8.80;;;18.30;99.90;;;;;;5072574;28;20275;-76
2021/07/23 22:51:58;;;;;;;15.17;8.63;;;18.30;99.90;;;;;;5071995;28;20225;-76
2021/07/23 22:54:26;;;;;;;9.53;7.80;;;18.30;99.90;;;;;;5071933;28;20350;-76
2021/07/23 22:56:52;;;;;;;14.50;8.43;;;18.30;99.90;;;;;;5072187;28;20191;-74
2021/07/23 22:59:19;;;;;;;14.43;8.47;;;18.30;99.90;;;;;;5072717;28;20231;-75
2021/07/23 23:01:48;;;;;;;12.50;8.77;;;18.20;99.90;;;;;;5069166;28;20664;-75
2021/07/23 23:04:14;;;;;;;13.97;8.20;;;18.20;99.90;;;;;;5070935;28;20207;-76
2021/07/23 23:06:43;;;;;;;16.20;8.50;;;18.20;99.90;;;;;;5072103;28;20234;-75
2021/07/23 23:09:11;;;;;;;15.20;8.60;;;18.20;99.90;;;;;;5072307;28;20216;-76
2021/07/23 23:11:38;;;;;;;16.17;8.63;;;18.20;99.90;;;;;;5072170;28;20620;-77
2021/07/23 23:14:05;;;;;;;18.10;9.60;;;18.20;99.90;;;;;;5072405;28;20279;-74
2021/07/23 23:16:32;;;;;;;13.00;8.77;;;18.20;99.90;;;;;;5071780;28;20649;-76
2021/07/23 23:18:58;;;;;;;11.50;8.57;;;18.10;99.90;;;;;;5069266;28;20302;-76
2021/07/23 23:21:25;;;;;;;12.93;9.37;;;18.10;99.90;;;;;;5072120;28;20196;-76
2021/07/23 23:23:54;;;;;;;12.10;8.50;;;18.20;99.90;;;;;;5072206;28;20279;-75
2021/07/23 23:26:20;;;;;;;17.00;9.30;;;18.20;99.90;;;;;;5066267;28;20692;-75
2021/07/23 23:28:47;;;;;;;13.30;8.77;;;18.20;99.90;;;;;;5067979;28;20198;-75
2021/07/23 23:31:14;;;;;;;13.23;8.90;;;18.20;99.90;;;;;;5071521;28;20550;-76
2021/07/23 23:33:41;;;;;;;12.73;8.90;;;18.20;99.90;;;;;;5069250;28;20645;-75
2021/07/23 23:36:13;;;;;;;12.40;8.67;;;18.20;99.90;;;;;;5071704;28;20192;-75
2021/07/23 23:38:41;;;;;;;14.87;9.67;;;18.10;99.90;;;;;;5071714;28;20196;-75
2021/07/23 23:41:10;;;;;;;15.97;9.07;;;18.20;99.90;;;;;;5071551;28;20195;-75
2021/07/23 23:43:37;;;;;;;12.97;8.77;;;18.10;99.90;;;;;;5071793;28;20274;-75
2021/07/23 23:46:04;;;;;;;12.47;8.57;;;18.10;99.90;;;;;;5071804;28;20222;-75
2021/07/23 23:48:30;;;;;;;11.83;8.70;;;18.10;99.90;;;;;;5071650;28;20187;-75
2021/07/23 23:50:59;;;;;;;15.03;9.30;;;18.10;99.90;;;;;;5072002;28;20271;-76
2021/07/23 23:53:28;;;;;;;15.53;9.53;;;18.10;99.90;;;;;;5075367;28;20184;-75
2021/07/23 23:55:57;;;;;;;12.57;9.03;;;18.20;99.90;;;;;;5075611;28;20287;-75
2021/07/23 23:58:25;;;;;;;16.27;8.90;;;18.30;99.90;;;;;;5073156;28;20199;-75
